createdAt,value
2018-08-07T00:01:52.712Z,1012.9
2018-08-07T00:06:53.276Z,1012.9
2018-08-07T00:11:53.112Z,1012.8
2018-08-07T00:16:52.742Z,1012.7
2018-08-07T00:21:53.173Z,1012.6
2018-08-07T00:26:52.796Z,1012.6
2018-08-07T00:31:53.102Z,1012.5
2018-08-07T00:36:52.532Z,1012.5
2018-08-07T00:41:52.744Z,1012.6
2018-08-07T00:46:53.029Z,1012.4
2018-08-07T00:51:52.499Z,1012.4
2018-08-07T00:56:53.103Z,1012.3
2018-08-07T01:01:52.385Z,1012.3
2018-08-07T01:06:52.909Z,1012.3
2018-08-07T01:11:53.524Z,1012.3
2018-08-07T01:16:52.408Z,1012.2
2018-08-07T01:21:53.524Z,1012.2
2018-08-07T01:26:52.818Z,1012.2
2018-08-07T01:31:52.818Z,1012.1
2018-08-07T01:36:53.201Z,1012
2018-08-07T01:41:52.460Z,1012
2018-08-07T01:46:52.737Z,1012
2018-08-07T01:51:53.252Z,1012
2018-08-07T01:56:52.820Z,1012
2018-08-07T02:01:53.182Z,1012
2018-08-07T02:06:52.642Z,1012
2018-08-07T02:11:52.807Z,1012.1
2018-08-07T02:16:54.518Z,1012.1
2018-08-07T02:21:52.588Z,1012
2018-08-07T02:26:53.552Z,1012
2018-08-07T02:31:52.447Z,1012
2018-08-07T02:36:52.903Z,1012
2018-08-07T02:41:53.134Z,1011.9
2018-08-07T02:46:52.420Z,1011.9
2018-08-07T02:51:52.838Z,1011.9
2018-08-07T02:56:52.450Z,1012
2018-08-07T03:01:52.758Z,1011.9
2018-08-07T03:06:53.269Z,1011.9
2018-08-07T03:11:52.466Z,1011.8
2018-08-07T03:16:52.897Z,1011.9
2018-08-07T03:21:53.234Z,1011.9
2018-08-07T03:26:52.815Z,1012
2018-08-07T03:31:53.139Z,1011.9
2018-08-07T03:36:52.608Z,1011.9
2018-08-07T03:41:52.784Z,1011.9
2018-08-07T03:46:53.079Z,1012
2018-08-07T03:51:52.517Z,1012.1
2018-08-07T03:56:53.215Z,1012
2018-08-07T04:01:52.414Z,1012
2018-08-07T04:06:52.908Z,1012
2018-08-07T04:11:58.126Z,1012
2018-08-07T04:16:52.412Z,1012
2018-08-07T04:21:52.862Z,1012.1
2018-08-07T04:26:52.898Z,1012.1
2018-08-07T04:31:52.799Z,1012.1
2018-08-07T04:36:53.216Z,1012.2
2018-08-07T04:41:52.465Z,1012.2
2018-08-07T04:46:52.743Z,1012.2
2018-08-07T04:51:53.748Z,1012.2
2018-08-07T04:56:52.927Z,1012.1
2018-08-07T05:01:53.159Z,1012.1
2018-08-07T05:06:52.637Z,1012.2
2018-08-07T05:11:52.450Z,1012.2
2018-08-07T05:16:52.767Z,1012.1
2018-08-07T05:21:53.225Z,1012.2
2018-08-07T05:26:52.916Z,1012.1
2018-08-07T05:31:53.129Z,1012.2
2018-08-07T05:36:52.618Z,1012.2
2018-08-07T05:41:52.851Z,1012.2
2018-08-07T05:46:53.128Z,1012.2
2018-08-07T05:51:52.631Z,1012.2
2018-08-07T05:56:53.217Z,1012.2
2018-08-07T06:01:52.496Z,1012.2
2018-08-07T06:06:53.349Z,1012.2
2018-08-07T06:11:53.191Z,1012.1
2018-08-07T06:16:52.857Z,1012.1
2018-08-07T06:21:52.929Z,1012.1
2018-08-07T06:26:52.506Z,1012.1
2018-08-07T06:31:52.858Z,1012.2
2018-08-07T06:36:53.288Z,1012.1
2018-08-07T06:41:52.507Z,1012.1
2018-08-07T06:46:52.783Z,1012.1
2018-08-07T06:51:53.264Z,1012
2018-08-07T06:56:52.838Z,1012
2018-08-07T07:01:53.158Z,1011.9
2018-08-07T07:06:52.639Z,1011.8
2018-08-07T07:11:52.860Z,1011.9
2018-08-07T07:16:53.160Z,1011.8
2018-08-07T07:21:52.627Z,1011.8
2018-08-07T07:26:53.211Z,1011.7
2018-08-07T07:31:52.485Z,1011.7
2018-08-07T07:36:52.952Z,1011.7
2018-08-07T07:41:53.177Z,1011.6
2018-08-07T07:46:53.234Z,1011.5
2018-08-07T07:51:52.912Z,1011.4
2018-08-07T07:56:52.499Z,1011.3
2018-08-07T08:01:52.791Z,1011.3
2018-08-07T08:06:53.241Z,1011.3
2018-08-07T08:11:52.496Z,1011.3
2018-08-07T08:16:52.809Z,1011.3
2018-08-07T08:21:53.232Z,1011.2
2018-08-07T08:26:52.846Z,1011.2
2018-08-07T08:31:53.146Z,1011.2
2018-08-07T08:36:52.680Z,1011.2
2018-08-07T08:41:52.834Z,1011.1
2018-08-07T08:46:53.090Z,1011.1
2018-08-07T08:51:52.606Z,1011
2018-08-07T08:56:53.160Z,1011
2018-08-07T09:01:52.473Z,1010.9
2018-08-07T09:06:52.994Z,1010.7
2018-08-07T09:11:53.285Z,1010.6
2018-08-07T09:16:52.517Z,1010.6
2018-08-07T09:21:58.364Z,1010.6
2018-08-07T09:26:52.509Z,1010.5
2018-08-07T09:31:53.229Z,1010.5
2018-08-07T09:36:53.896Z,1010.5
2018-08-07T09:41:52.508Z,1010.4
2018-08-07T09:46:53.464Z,1010.3
2018-08-07T09:51:53.296Z,1010.3
2018-08-07T09:56:52.998Z,1010.3
2018-08-07T10:01:53.172Z,1010.3
2018-08-07T10:06:52.664Z,1010.2
2018-08-07T10:11:52.846Z,1010.1
2018-08-07T10:16:53.166Z,1010
2018-08-07T10:21:52.626Z,1009.9
2018-08-07T10:26:53.162Z,1009.8
2018-08-07T10:31:52.486Z,1009.9
2018-08-07T10:36:52.898Z,1009.7
2018-08-07T10:41:53.140Z,1009.6
2018-08-07T10:46:52.411Z,1009.6
2018-08-07T10:51:52.894Z,1009.6
2018-08-07T10:56:52.520Z,1009.5
2018-08-07T11:01:52.802Z,1009.5
2018-08-07T11:06:53.343Z,1009.5
2018-08-07T11:11:52.543Z,1009.4
2018-08-07T11:16:54.045Z,1009.2
2018-08-07T11:21:53.314Z,1009.3
2018-08-07T11:26:52.994Z,1009.3
2018-08-07T11:31:53.154Z,1009.2
2018-08-07T11:36:52.642Z,1009.2
2018-08-07T11:41:52.887Z,1009
2018-08-07T11:46:58.184Z,1009
2018-08-07T11:51:52.625Z,1009
2018-08-07T11:56:53.212Z,1009.1
2018-08-07T12:01:52.960Z,1008.9
2018-08-07T12:06:53.040Z,1008.9
2018-08-07T12:11:55.273Z,1008.9
2018-08-07T12:16:52.643Z,1008.8
2018-08-07T12:21:53.024Z,1008.9
2018-08-07T12:26:52.588Z,1008.8
2018-08-07T12:31:52.853Z,1008.7
2018-08-07T12:36:53.368Z,1008.7
2018-08-07T12:41:52.588Z,1008.7
2018-08-07T12:46:52.871Z,1008.5
2018-08-07T12:51:53.345Z,1008.6
2018-08-07T12:56:53.083Z,1008.5
2018-08-07T13:01:53.266Z,1008.4
2018-08-07T13:06:53.751Z,1008.4
2018-08-07T13:11:52.964Z,1008.4
2018-08-07T13:16:53.281Z,1008.2
2018-08-07T13:21:52.782Z,1008.2
2018-08-07T13:26:52.372Z,1008.1
2018-08-07T13:31:52.663Z,1008
2018-08-07T13:36:53.321Z,1007.9
2018-08-07T13:41:52.338Z,1007.9
2018-08-07T13:46:52.633Z,1007.8
2018-08-07T13:51:53.130Z,1007.8
2018-08-07T13:56:52.723Z,1007.9
2018-08-07T14:01:52.985Z,1007.8
2018-08-07T14:06:57.656Z,1007.9
2018-08-07T14:11:52.791Z,1007.8
2018-08-07T14:16:53.000Z,1007.7
2018-08-07T14:21:52.451Z,1007.7
2018-08-07T14:26:53.012Z,1007.7
2018-08-07T14:31:52.371Z,1007.7
2018-08-07T14:36:53.832Z,1007.7
2018-08-07T14:41:53.044Z,1007.8
2018-08-07T14:46:52.366Z,1007.6
2018-08-07T14:51:52.819Z,1007.7
2018-08-07T14:56:52.444Z,1007.7
2018-08-07T15:01:53.148Z,1007.7
2018-08-07T15:06:53.213Z,1007.6
2018-08-07T15:11:52.444Z,1007.6
2018-08-07T15:16:52.700Z,1007.6
2018-08-07T15:21:53.131Z,1007.5
2018-08-07T15:26:52.747Z,1007.5
2018-08-07T15:31:53.014Z,1007.6
2018-08-07T15:36:52.547Z,1007.5
2018-08-07T15:41:53.031Z,1007.5
2018-08-07T15:46:53.051Z,1007.5
2018-08-07T15:51:52.493Z,1007.5
2018-08-07T15:56:53.686Z,1007.4
2018-08-07T16:01:52.421Z,1007.4
2018-08-07T16:06:52.931Z,1007.5
2018-08-07T16:11:53.140Z,1007.5
2018-08-07T16:16:53.087Z,1007.4
2018-08-07T16:21:53.319Z,1007.4
2018-08-07T16:26:57.928Z,1007.4
2018-08-07T16:31:52.902Z,1007.4
2018-08-07T16:36:53.656Z,1007.5
2018-08-07T16:41:52.491Z,1007.5
2018-08-07T16:46:52.827Z,1007.5
2018-08-07T16:51:54.297Z,1007.5
2018-08-07T16:56:53.182Z,1007.5
2018-08-07T17:01:53.238Z,1007.5
2018-08-07T17:06:52.681Z,1007.5
2018-08-07T17:11:52.912Z,1007.4
2018-08-07T17:16:53.247Z,1007.4
2018-08-07T17:21:52.661Z,1007.5
2018-08-07T17:26:53.241Z,1007.5
2018-08-07T17:31:52.988Z,1007.6
2018-08-07T17:36:52.997Z,1007.7
2018-08-07T17:41:53.220Z,1007.7
2018-08-07T17:46:52.515Z,1007.7
2018-08-07T17:51:53.001Z,1007.7
2018-08-07T17:56:52.951Z,1007.7
2018-08-07T18:01:53.319Z,1007.8
2018-08-07T18:06:54.316Z,1007.8
2018-08-07T18:11:52.621Z,1007.8
2018-08-07T18:16:52.892Z,1007.9
2018-08-07T18:21:53.331Z,1008
2018-08-07T18:26:53.506Z,1008
2018-08-07T18:31:53.232Z,1008.1
2018-08-07T18:36:52.648Z,1008.1
2018-08-07T18:41:52.890Z,1008.2
2018-08-07T18:46:53.206Z,1008.2
2018-08-07T18:51:52.681Z,1008.2
2018-08-07T18:56:53.269Z,1008.3
2018-08-07T19:01:52.563Z,1008.3
2018-08-07T19:06:53.055Z,1008.2
2018-08-07T19:11:53.255Z,1008.3
2018-08-07T19:16:52.567Z,1008.2
2018-08-07T19:21:53.064Z,1008.2
2018-08-07T19:26:52.642Z,1008.2
2018-08-07T19:31:52.902Z,1008.2
2018-08-07T19:36:53.373Z,1008.2
2018-08-07T19:41:52.561Z,1008.3
2018-08-07T19:46:53.149Z,1008.2
2018-08-07T19:51:53.356Z,1008.3
2018-08-07T19:56:52.936Z,1008.5
2018-08-07T20:01:53.245Z,1008.6
2018-08-07T20:06:52.710Z,1008.7
2018-08-07T20:11:52.977Z,1008.7
2018-08-07T20:16:53.282Z,1008.8
2018-08-07T20:21:52.647Z,1008.8
2018-08-07T20:26:53.236Z,1008.8
2018-08-07T20:31:52.559Z,1008.8
2018-08-07T20:36:53.005Z,1008.9
2018-08-07T20:41:53.228Z,1008.9
2018-08-07T20:46:53.146Z,1008.7
2018-08-07T20:51:52.987Z,1009
2018-08-07T20:56:52.581Z,1009
2018-08-07T21:01:52.887Z,1009
2018-08-07T21:06:54.022Z,1009
2018-08-07T21:11:52.580Z,1008.9
2018-08-07T21:16:52.885Z,1008.9
2018-08-07T21:21:53.751Z,1008.9
2018-08-07T21:26:52.934Z,1008.9
2018-08-07T21:31:53.615Z,1008.7
2018-08-07T21:36:52.755Z,1008.6
2018-08-07T21:41:52.900Z,1008.4
2018-08-07T21:46:53.191Z,1008.3
2018-08-07T21:51:52.653Z,1008.2
2018-08-07T21:56:53.269Z,1008.2
2018-08-07T22:01:52.577Z,1008
2018-08-07T22:06:53.106Z,1007.7
2018-08-07T22:11:52.311Z,1007.6
2018-08-07T22:16:52.606Z,1007.6
2018-08-07T22:21:53.055Z,1007.6
2018-08-07T22:26:52.763Z,1007.7
2018-08-07T22:31:52.954Z,1007.7
2018-08-07T22:36:52.844Z,1007.4
2018-08-07T22:41:52.637Z,1007.2
2018-08-07T22:46:52.949Z,1007.3
2018-08-07T22:51:53.432Z,1007.4
2018-08-07T22:56:52.985Z,1007.5
2018-08-07T23:01:53.359Z,1007.4
2018-08-07T23:06:52.802Z,1007.3
2018-08-07T23:11:53.032Z,1007.1
2018-08-07T23:16:53.805Z,1007
2018-08-07T23:21:52.791Z,1006.9
2018-08-07T23:26:52.362Z,1006.9
2018-08-07T23:31:52.659Z,1006.9
2018-08-07T23:36:53.128Z,1006.9
2018-08-07T23:41:52.341Z,1006.8
2018-08-07T23:46:52.654Z,1006.8
2018-08-07T23:51:53.152Z,1006.7
2018-08-07T23:56:52.712Z,1006.6
